Time;durP1;ratioP1;P1;durP2;ratioP2;P2;SDS_P1;SDS_P2;PMS_P1;PMS_P2;Temp;Humidity;BMP_temperature;BMP_pressure;BME280_temperature;BME280_humidity;BME280_pressure;Samples;Min_cycle;Max_cycle;Signal;HPM_P1;HPM_P2
2022/06/07 00:00:09;;;;;;;27.58;18.77;;;;;;;13.03;100.00;101168.72;4992554;28;20030;-72
2022/06/07 00:02:35;;;;;;;22.05;18.35;;;;;;;13.05;100.00;101163.06;4990312;28;20066;-71
2022/06/07 00:05:01;;;;;;;28.92;19.60;;;;;;;13.02;100.00;101155.38;4992162;28;20549;-72
2022/06/07 00:07:27;;;;;;;24.48;18.17;;;;;;;13.05;100.00;101157.63;4992399;28;20113;-73
2022/06/07 00:09:53;;;;;;;23.75;18.77;;;;;;;13.02;100.00;101152.66;4992406;28;20041;-73
2022/06/07 00:12:19;;;;;;;25.10;18.63;;;;;;;13.04;100.00;101151.34;4994801;28;20034;-71
2022/06/07 00:14:45;;;;;;;26.38;19.67;;;;;;;13.04;100.00;101155.97;4996017;28;20026;-73
2022/06/07 00:17:12;;;;;;;24.52;20.38;;;;;;;13.02;100.00;101155.38;4995835;28;20086;-73
2022/06/07 00:19:38;;;;;;;26.35;20.95;;;;;;;13.00;100.00;101149.31;4996013;28;20033;-73
2022/06/07 00:22:04;;;;;;;29.70;21.77;;;;;;;12.99;100.00;101147.69;4995780;28;20054;-70
2022/06/07 00:24:29;;;;;;;28.08;21.30;;;;;;;12.98;100.00;101146.84;4995707;28;20121;-70
2022/06/07 00:26:55;;;;;;;28.70;22.30;;;;;;;13.00;100.00;101143.91;4995586;28;20126;-71
2022/06/07 00:29:23;;;;;;;30.38;22.73;;;;;;;12.99;100.00;101139.56;4995864;28;20034;-70
2022/06/07 00:31:48;;;;;;;31.88;22.67;;;;;;;13.00;100.00;101141.19;4995769;28;20069;-70
2022/06/07 00:34:14;;;;;;;29.48;22.55;;;;;;;12.96;100.00;101132.69;4995523;28;20454;-72
2022/06/07 00:36:40;;;;;;;31.60;21.80;;;;;;;12.99;100.00;101136.84;4995413;28;20109;-72
2022/06/07 00:39:05;;;;;;;27.13;22.75;;;;;;;12.96;100.00;101127.25;4995127;28;20433;-70
2022/06/07 00:41:31;;;;;;;33.00;22.30;;;;;;;12.99;100.00;101123.25;4995658;28;20037;-72
2022/06/07 00:44:21;;;;;;;26.88;23.15;;;;;;;13.02;100.00;101130.94;4995395;28;20034;-70
2022/06/07 00:47:10;;;;;;;25.80;21.52;;;;;;;13.02;100.00;101123.59;4995235;28;20097;-72
2022/06/07 00:50:04;;;;;;;25.90;20.73;;;;;;;13.03;100.00;101121.69;4995519;28;20370;-73
2022/06/07 00:52:31;;;;;;;23.73;19.55;;;;;;;12.97;100.00;101126.19;4985923;28;20166;-69
2022/06/07 00:54:58;;;;;;;26.08;19.30;;;;;;;12.91;100.00;101119.81;4995442;28;20038;-71
2022/06/07 00:57:24;;;;;;;23.05;18.65;;;;;;;12.87;100.00;101107.75;4994802;28;20505;-72
2022/06/07 00:59:51;;;;;;;23.10;19.27;;;;;;;12.90;100.00;101111.91;4995183;28;20490;-70
2022/06/07 01:02:17;;;;;;;25.27;18.70;;;;;;;12.87;100.00;101110.47;4992680;28;20034;-69
2022/06/07 01:04:42;;;;;;;22.50;18.55;;;;;;;12.88;100.00;101109.41;4994783;28;20034;-70
2022/06/07 01:12:35;;;;;;;21.92;17.60;;;;;;;12.86;100.00;101106.13;4994745;28;20759;-71
2022/06/07 01:15:01;;;;;;;23.05;16.48;;;;;;;12.86;100.00;101107.97;4993716;28;20062;-70
2022/06/07 01:17:28;;;;;;;21.08;16.20;;;;;;;12.84;100.00;101102.78;4994918;28;20352;-69
2022/06/07 01:19:53;;;;;;;20.45;15.80;;;;;;;12.83;100.00;101101.16;4994855;28;20028;-70
2022/06/07 01:22:19;;;;;;;18.35;14.77;;;;;;;12.84;100.00;101101.97;4993585;28;20038;-71
2022/06/07 01:24:45;;;;;;;20.20;13.63;;;;;;;12.82;100.00;101104.91;5009685;28;20450;-71
2022/06/07 01:27:11;;;;;;;16.25;12.75;;;;;;;12.81;100.00;101099.72;4994272;28;20034;-72
2022/06/07 01:29:36;;;;;;;16.85;13.23;;;;;;;12.83;100.00;101100.31;4994754;28;20138;-71
2022/06/07 01:32:03;;;;;;;18.67;13.75;;;;;;;12.80;100.00;101096.16;4994742;28;20026;-71
2022/06/07 01:34:28;;;;;;;18.65;13.63;;;;;;;12.80;100.00;101096.16;4994446;28;20477;-72
2022/06/07 01:36:55;;;;;;;19.65;13.13;;;;;;;12.80;100.00;101093.44;4994180;28;20034;-70
2022/06/07 01:42:05;;;;;;;16.50;12.95;;;;;;;12.80;100.00;101085.28;4994293;28;20402;-73
2022/06/07 01:44:37;;;;;;;18.17;12.93;;;;;;;12.79;100.00;101094.53;4993935;28;20030;-71
2022/06/07 01:47:04;;;;;;;19.13;11.70;;;;;;;12.73;100.00;101081.88;4994270;28;20030;-72
2022/06/07 01:49:30;;;;;;;17.10;11.85;;;;;;;12.74;100.00;101086.22;4994373;28;20065;-71
2022/06/07 01:51:55;;;;;;;20.13;11.18;;;;;;;12.73;100.00;101081.88;4994113;28;20072;-69
2022/06/07 01:54:22;;;;;;;19.27;12.00;;;;;;;12.71;100.00;101081.28;4994029;28;20486;-73
2022/06/07 01:56:48;;;;;;;16.02;10.75;;;;;;;12.69;100.00;101081.50;4994224;28;20196;-69
2022/06/07 01:59:13;;;;;;;14.10;10.25;;;;;;;12.69;100.00;101075.25;4993889;28;20084;-73
2022/06/07 02:01:39;;;;;;;13.40;9.55;;;;;;;12.70;100.00;101079.63;4991424;28;20117;-70
2022/06/07 02:04:05;;;;;;;12.57;8.80;;;;;;;12.67;100.00;101080.09;4994199;28;20141;-72
2022/06/07 02:06:31;;;;;;;14.10;8.57;;;;;;;12.66;100.00;101078.44;4994066;28;20042;-71
2022/06/07 02:08:57;;;;;;;18.55;9.02;;;;;;;12.65;100.00;101076.78;4994002;28;20026;-70
2022/06/07 02:11:25;;;;;;;11.73;8.77;;;;;;;12.62;100.00;101074.53;4993673;28;20172;-70
2022/06/07 02:13:52;;;;;;;9.88;8.43;;;;;;;12.66;100.00;101081.16;4993803;28;20035;-71
2022/06/07 02:16:17;;;;;;;9.60;7.57;;;;;;;12.62;100.00;101069.94;4993440;28;20043;-69
2022/06/07 02:18:43;;;;;;;16.55;8.05;;;;;;;12.56;100.00;101068.97;4993813;28;20033;-70
2022/06/07 02:21:09;;;;;;;12.77;8.02;;;;;;;12.56;100.00;101068.97;4993395;28;20047;-73
2022/06/07 02:23:37;;;;;;;12.18;7.35;;;;;;;12.54;100.00;101065.66;4993762;28;20474;-69
2022/06/07 02:26:17;;;;;;;14.05;7.57;;;;;;;12.52;100.00;101065.06;4993611;28;20026;-69
2022/06/07 02:28:46;;;;;;;9.93;7.45;;;;;;;12.51;100.00;101066.13;4993660;28;20034;-69
2022/06/07 02:31:12;;;;;;;12.00;6.88;;;;;;;12.49;100.00;101062.81;4993020;28;20033;-71
2022/06/07 02:33:39;;;;;;;9.57;7.30;;;;;;;12.50;100.00;101058.22;4993550;28;20382;-75
2022/06/07 02:36:06;;;;;;;10.48;6.70;;;;;;;12.47;100.00;101064.09;4993257;28;20037;-76
2022/06/07 02:38:33;;;;;;;14.05;6.85;;;;;;;12.42;100.00;101051.22;4993591;28;20110;-71
2022/06/07 02:40:58;;;;;;;12.52;6.32;;;;;;;12.43;100.00;101055.63;4993464;28;20108;-69
2022/06/07 02:43:24;;;;;;;10.48;6.45;;;;;;;12.43;100.00;101052.91;4993229;28;20458;-69
2022/06/07 02:45:49;;;;;;;9.93;6.70;;;;;;;12.44;100.00;101057.28;5008203;28;20133;-69
2022/06/07 02:48:14;;;;;;;11.00;6.40;;;;;;;12.39;100.00;101047.13;4992831;28;20036;-69
2022/06/07 02:50:40;;;;;;;10.00;5.70;;;;;;;12.39;100.00;101051.69;4992074;28;20065;-70
2022/06/07 02:53:06;;;;;;;12.05;5.47;;;;;;;12.35;100.00;101045.06;4993318;28;20109;-69
2022/06/07 02:55:31;;;;;;;9.10;5.47;;;;;;;12.39;100.00;101051.69;4993029;28;20030;-70
2022/06/07 02:57:56;;;;;;;11.07;5.55;;;;;;;12.36;100.00;101049.44;4993272;28;20045;-70
2022/06/07 03:00:22;;;;;;;11.93;5.50;;;;;;;12.37;100.00;101040.25;4992071;28;20050;-69
2022/06/07 03:02:48;;;;;;;8.98;5.22;;;;;;;12.39;100.00;101043.56;4991148;28;20033;-69
2022/06/07 03:05:14;;;;;;;9.75;5.38;;;;;;;12.32;100.00;101042.81;4992932;28;20030;-70
2022/06/07 03:07:41;;;;;;;9.38;4.90;;;;;;;12.34;100.00;101043.44;5008231;28;20481;-70
2022/06/07 03:10:08;;;;;;;9.35;5.22;;;;;;;12.33;100.00;101055.34;4992854;28;20478;-69
2022/06/07 03:12:33;;;;;;;9.13;4.90;;;;;;;12.35;100.00;101061.34;4992862;28;20478;-70
2022/06/07 03:14:59;;;;;;;7.55;4.85;;;;;;;12.32;100.00;101059.09;4992720;28;20092;-69
2022/06/07 03:17:25;;;;;;;9.25;5.13;;;;;;;12.33;100.00;101060.78;4992695;28;20081;-70
2022/06/07 03:19:51;;;;;;;9.25;5.00;;;;;;;12.30;100.00;101063.94;4993103;28;20117;-69
2022/06/07 03:22:17;;;;;;;8.57;5.20;;;;;;;12.31;100.00;101069.16;4992850;28;20054;-70
2022/06/07 03:24:43;;;;;;;10.10;4.90;;;;;;;12.27;100.00;101067.13;4992939;28;20462;-70
2022/06/07 03:27:09;;;;;;;9.52;4.82;;;;;;;12.23;100.00;101064.88;4991644;28;20061;-69
2022/06/07 03:29:34;;;;;;;10.32;5.35;;;;;;;12.27;100.00;101072.56;4992981;28;20062;-70
2022/06/07 03:31:59;;;;;;;8.07;4.85;;;;;;;12.30;100.00;101075.63;4992567;28;20389;-70
2022/06/07 03:34:25;;;;;;;8.82;4.93;;;;;;;12.26;100.00;101062.75;4992724;28;20029;-69
2022/06/07 03:36:50;;;;;;;10.05;4.63;;;;;;;12.22;100.00;101065.94;4992925;28;20036;-70
2022/06/07 03:39:15;;;;;;;7.95;4.70;;;;;;;12.23;100.00;101066.78;4992692;28;20378;-69
2022/06/07 03:41:41;;;;;;;11.30;4.70;;;;;;;12.22;100.00;101076.78;4992647;28;20045;-70
2022/06/07 03:44:06;;;;;;;8.27;4.53;;;;;;;12.24;100.00;101079.25;4992928;28;20477;-69
2022/06/07 03:46:35;;;;;;;10.10;4.90;;;;;;;12.23;100.00;101075.72;4993811;28;20038;-70
2022/06/07 03:49:02;;;;;;;10.48;4.63;;;;;;;12.25;100.00;101082.81;4996283;28;20505;-69
2022/06/07 03:51:29;;;;;;;10.07;4.35;;;;;;;12.24;100.00;101081.97;4996303;28;20470;-69
2022/06/07 03:53:56;;;;;;;9.52;4.90;;;;;;;12.23;100.00;101086.59;4996510;28;20030;-69
2022/06/07 03:56:23;;;;;;;8.13;4.43;;;;;;;12.26;100.00;101084.44;4996228;28;20076;-70
2022/06/07 03:58:49;;;;;;;11.15;5.20;;;;;;;12.25;100.00;101090.97;4996355;28;20026;-69
2022/06/07 04:01:17;;;;;;;8.02;5.35;;;;;;;12.27;100.00;101091.53;4993560;28;20034;-70
2022/06/07 04:03:44;;;;;;;10.23;4.90;;;;;;;12.27;100.00;101088.84;4996128;28;20038;-69
2022/06/07 04:06:23;;;;;;;9.02;5.00;;;;;;;12.22;100.00;101084.91;4996305;28;20037;-69
2022/06/07 04:08:49;;;;;;;9.48;4.80;;;;;;;12.23;100.00;101089.28;4996517;28;20026;-70
2022/06/07 04:11:17;;;;;;;7.78;4.85;;;;;;;12.26;100.00;101098.03;4995953;28;20088;-70
2022/06/07 04:13:43;;;;;;;7.57;5.18;;;;;;;12.22;100.00;101097.66;4996328;28;20523;-69
2022/06/07 04:16:12;;;;;;;8.70;5.22;;;;;;;12.19;100.00;101090.81;4995824;28;20038;-70
2022/06/07 04:18:37;;;;;;;8.00;4.78;;;;;;;12.22;100.00;101093.06;4995821;28;20089;-69
2022/06/07 04:21:02;;;;;;;14.75;5.53;;;;;;;12.21;100.00;101091.41;4995847;28;20642;-70
2022/06/07 04:23:28;;;;;;;13.48;5.88;;;;;;;12.24;100.00;101087.41;4995736;28;20374;-69
2022/06/07 04:25:53;;;;;;;7.45;5.07;;;;;;;12.28;100.00;101093.22;4995540;28;20038;-69
2022/06/07 04:28:19;;;;;;;8.85;4.85;;;;;;;12.28;100.00;101088.59;4995646;28;20030;-69
2022/06/07 04:30:46;;;;;;;12.15;5.57;;;;;;;12.27;100.00;101100.50;4995589;28;20030;-69
2022/06/07 04:33:15;;;;;;;9.77;5.13;;;;;;;12.31;100.00;101099.00;4995575;28;20536;-70
2022/06/07 04:35:42;;;;;;;8.45;5.30;;;;;;;12.30;100.00;101091.09;4995745;28;20084;-69
2022/06/07 04:38:08;;;;;;;10.23;5.53;;;;;;;12.30;100.00;101089.19;4995691;28;20053;-70
2022/06/07 04:40:33;;;;;;;9.82;5.30;;;;;;;12.32;100.00;101097.94;4995431;28;20030;-69
2022/06/07 04:42:58;;;;;;;9.35;5.57;;;;;;;12.34;100.00;101093.09;4995622;28;20030;-69
2022/06/07 04:45:24;;;;;;;13.98;6.00;;;;;;;12.35;100.00;101088.50;4995010;28;20110;-70
2022/06/07 04:47:49;;;;;;;8.57;5.60;;;;;;;12.34;100.00;101089.56;4995163;28;20401;-69
2022/06/07 04:50:17;;;;;;;13.27;5.80;;;;;;;12.40;100.00;101099.50;4995471;28;20459;-70
2022/06/07 04:52:44;;;;;;;13.15;6.63;;;;;;;12.41;100.00;101101.97;4995381;28;20026;-69
2022/06/07 04:55:10;;;;;;;10.73;5.70;;;;;;;12.40;100.00;101094.88;4995040;28;20437;-70
2022/06/07 04:57:35;;;;;;;13.32;5.68;;;;;;;12.44;100.00;101103.41;4993886;28;20114;-70
2022/06/07 05:00:01;;;;;;;9.80;6.13;;;;;;;12.45;100.00;101099.63;4995293;28;20110;-69
2022/06/07 05:02:26;;;;;;;9.00;5.68;;;;;;;12.45;100.00;101106.94;4992748;28;20413;-70
2022/06/07 05:04:51;;;;;;;13.35;6.82;;;;;;;12.44;100.00;101106.13;4995179;28;20117;-70
2022/06/07 05:07:17;;;;;;;13.43;6.57;;;;;;;12.46;100.00;101104.00;4995096;28;20489;-70
2022/06/07 05:09:42;;;;;;;12.35;6.45;;;;;;;12.47;100.00;101107.53;4995106;28;20052;-70
2022/06/07 05:12:08;;;;;;;11.27;6.43;;;;;;;12.52;100.00;101110.41;4995089;28;20026;-70
2022/06/07 05:14:35;;;;;;;9.18;6.43;;;;;;;12.49;100.00;101108.97;4994749;28;20026;-70
2022/06/07 05:17:00;;;;;;;12.55;6.07;;;;;;;12.47;100.00;101108.38;4994796;28;20477;-70
2022/06/07 05:19:27;;;;;;;15.35;6.57;;;;;;;12.48;100.00;101114.63;4994672;28;20038;-69
2022/06/07 05:21:53;;;;;;;12.02;6.18;;;;;;;12.42;100.00;101116.38;4994864;28;20061;-69
2022/06/07 05:24:18;;;;;;;12.20;6.80;;;;;;;12.44;100.00;101119.69;4994783;28;20035;-70
2022/06/07 05:26:50;;;;;;;9.80;6.18;;;;;;;12.45;100.00;101123.22;4994520;28;20045;-69
2022/06/07 05:29:21;;;;;;;10.32;6.60;;;;;;;12.50;100.00;101123.34;4994732;28;20058;-71
2022/06/07 05:31:47;;;;;;;12.63;6.20;;;;;;;12.47;100.00;101123.81;4994809;28;20038;-70
2022/06/07 05:34:12;;;;;;;14.07;6.90;;;;;;;12.50;100.00;101123.34;4994606;28;20022;-69
2022/06/07 05:36:37;;;;;;;11.48;7.03;;;;;;;12.51;100.00;101108.72;4994402;28;20041;-70
2022/06/07 05:39:04;;;;;;;14.27;7.07;;;;;;;12.52;100.00;101113.94;4994329;28;20037;-70
2022/06/07 05:41:29;;;;;;;12.40;6.60;;;;;;;12.54;100.00;101114.50;4993702;28;20030;-70
2022/06/07 05:43:55;;;;;;;13.02;6.70;;;;;;;12.56;100.00;101117.84;4994478;28;20360;-70
2022/06/07 05:46:21;;;;;;;14.02;6.78;;;;;;;12.59;100.00;101114.66;4994211;28;20108;-69
2022/06/07 05:48:47;;;;;;;12.63;7.03;;;;;;;12.61;100.00;101113.63;4979240;28;20038;-70
2022/06/07 05:51:13;;;;;;;16.33;8.30;;;;;;;12.64;100.00;101113.97;5000597;28;20060;-71
2022/06/07 05:53:39;;;;;;;11.05;7.45;;;;;;;12.62;100.00;101115.25;4993802;28;20084;-70
2022/06/07 05:56:11;;;;;;;13.13;7.53;;;;;;;12.66;100.00;101124.59;4995844;28;20053;-71
2022/06/07 05:58:36;;;;;;;18.48;7.95;;;;;;;12.60;100.00;101123.63;5013410;28;20041;-70
2022/06/07 06:01:03;;;;;;;12.45;8.57;;;;;;;12.64;100.00;101121.28;5011363;28;20029;-70
2022/06/07 06:03:28;;;;;;;14.30;8.20;;;;;;;12.70;100.00;101123.09;5013313;28;20048;-70
2022/06/07 06:05:54;;;;;;;13.05;9.20;;;;;;;12.76;100.00;101127.56;5013260;28;20026;-71
2022/06/07 06:11:06;;;;;;;15.98;9.57;;;;;;;12.80;100.00;101128.75;5013310;28;20125;-71
2022/06/07 06:13:31;;;;;;;14.88;9.13;;;;;;;12.84;100.00;101129.13;5013181;28;20021;-73
2022/06/07 06:16:06;;;;;;;15.77;8.88;;;;;;;12.92;100.00;101126.91;5013531;28;20045;-75
2022/06/07 06:18:32;;;;;;;13.05;9.20;;;;;;;12.99;100.00;101125.97;5012967;28;20025;-72
2022/06/07 06:20:57;;;;;;;14.48;8.85;;;;;;;13.06;100.00;101122.06;5013294;28;20377;-73
2022/06/07 06:23:22;;;;;;;18.10;9.88;;;;;;;13.09;100.00;101121.59;5013142;28;20458;-73
2022/06/07 06:25:48;;;;;;;22.27;11.10;;;;;;;13.13;100.00;101119.22;5013238;28;20461;-74
2022/06/07 06:28:13;;;;;;;14.85;9.80;;;;;;;13.19;100.00;101115.56;5013274;28;20022;-72
2022/06/07 06:30:42;;;;;;;18.90;10.23;;;;;;;13.25;100.00;101114.63;5013101;28;20042;-72
2022/06/07 06:33:08;;;;;;;19.67;10.20;;;;;;;13.39;100.00;101120.69;5012966;28;20116;-74
2022/06/07 06:35:33;;;;;;;17.58;10.07;;;;;;;13.41;100.00;101121.28;5012951;28;20124;-75
2022/06/07 06:37:58;;;;;;;19.60;10.55;;;;;;;13.45;100.00;101124.34;5013192;28;20550;-73
2022/06/07 06:40:23;;;;;;;21.05;11.50;;;;;;;13.46;100.00;101124.09;5012586;28;20034;-73
2022/06/07 06:42:49;;;;;;;21.38;11.88;;;;;;;13.50;100.00;101121.75;5013033;28;20041;-75
2022/06/07 06:45:14;;;;;;;17.38;10.60;;;;;;;13.56;100.00;101123.50;5013055;28;20030;-73
2022/06/07 06:47:39;;;;;;;17.10;11.80;;;;;;;13.52;100.00;101122.31;5012339;28;20409;-74
2022/06/07 06:50:05;;;;;;;22.85;12.77;;;;;;;13.56;100.00;101118.06;5012990;28;20496;-72
2022/06/07 06:52:30;;;;;;;18.65;11.23;;;;;;;13.62;100.00;101119.84;5012745;28;20030;-73
2022/06/07 06:54:55;;;;;;;18.23;11.02;;;;;;;13.67;100.00;101121.84;5012909;28;20025;-72
2022/06/07 06:57:21;;;;;;;17.10;11.13;;;;;;;13.78;100.00;101122.88;5012843;28;20381;-74
2022/06/07 06:59:46;;;;;;;21.38;11.75;;;;;;;13.86;100.00;101125.25;5012707;28;20029;-73
2022/06/07 07:02:12;;;;;;;23.30;11.98;;;;;;;13.95;100.00;101134.69;5010324;28;20022;-73
2022/06/07 07:04:38;;;;;;;14.50;11.30;;;;;;;14.03;100.00;101133.47;5012671;28;20034;-74
2022/06/07 07:07:03;;;;;;;18.08;12.27;;;;;;;14.10;100.00;101130.59;5012900;28;20370;-74
2022/06/07 07:09:29;;;;;;;17.95;10.80;;;;;;;14.17;100.00;101137.56;5012596;28;20034;-72
2022/06/07 07:11:54;;;;;;;19.10;11.93;;;;;;;14.22;100.00;101142.28;5012830;28;20065;-74
2022/06/07 07:14:20;;;;;;;15.90;11.38;;;;;;;14.21;100.00;101137.91;5012701;28;20433;-74
2022/06/07 07:16:48;;;;;;;21.45;11.98;;;;;;;14.25;100.00;101146.41;5012342;28;20041;-73
2022/06/07 07:19:15;;;;;;;18.10;12.48;;;;;;;14.23;100.00;101140.38;5012786;28;20084;-73
2022/06/07 07:21:45;;;;;;;24.25;13.05;;;;;;;14.23;100.00;101140.38;5014413;28;20054;-72
2022/06/07 07:24:19;;;;;;;17.92;12.35;;;;;;;14.29;100.00;101131.25;5016687;28;20059;-73
2022/06/07 07:26:46;;;;;;;20.85;12.45;;;;;;;14.35;100.00;101133.00;5016352;28;20446;-74
2022/06/07 07:29:13;;;;;;;20.08;13.20;;;;;;;14.52;100.00;101133.03;5015278;28;20022;-72
2022/06/07 07:31:39;;;;;;;20.02;12.18;;;;;;;14.64;100.00;101131.09;5015897;28;20041;-73
2022/06/07 07:34:08;;;;;;;22.48;13.35;;;;;;;14.74;100.00;101125.03;5016533;28;20121;-74
2022/06/07 07:36:35;;;;;;;20.15;13.80;;;;;;;14.89;98.96;101128.00;5016247;28;20037;-74
2022/06/07 07:39:01;;;;;;;16.65;12.90;;;;;;;14.99;100.00;101127.34;5016457;28;20033;-73
2022/06/07 07:41:29;;;;;;;19.80;12.75;;;;;;;15.10;100.00;101127.50;5016176;28;20029;-74
2022/06/07 07:43:56;;;;;;;20.60;12.32;;;;;;;15.17;99.44;101128.16;5015981;28;20510;-73
2022/06/07 07:46:25;;;;;;;16.48;12.40;;;;;;;15.16;98.61;101129.25;5015717;28;20037;-72
2022/06/07 07:48:50;;;;;;;18.75;11.68;;;;;;;15.15;99.66;101131.13;5015979;28;20462;-74
2022/06/07 07:51:20;;;;;;;17.35;13.52;;;;;;;15.11;98.21;101129.97;5016430;28;20030;-72
2022/06/07 07:53:45;;;;;;;15.00;11.73;;;;;;;15.07;98.94;101126.13;5015913;28;20030;-72
2022/06/07 07:56:11;;;;;;;20.65;13.55;;;;;;;15.04;98.10;101124.69;5015958;28;20108;-74
2022/06/07 07:58:36;;;;;;;15.40;11.93;;;;;;;15.04;98.94;101123.88;5015864;28;20119;-73
2022/06/07 08:01:14;;;;;;;20.48;12.80;;;;;;;15.12;98.07;101128.09;5013462;28;20030;-73
2022/06/07 08:03:40;;;;;;;20.08;12.90;;;;;;;15.15;99.08;101135.75;5015745;28;20038;-75
2022/06/07 08:06:08;;;;;;;21.23;13.23;;;;;;;15.19;99.53;101126.84;5015822;28;20072;-72
2022/06/07 08:08:34;;;;;;;21.15;14.90;;;;;;;15.29;96.05;101128.88;5015665;28;20037;-72
2022/06/07 08:10:59;;;;;;;21.73;14.43;;;;;;;15.31;95.63;101118.56;5015969;28;20034;-75
2022/06/07 08:13:24;;;;;;;16.70;12.63;;;;;;;15.35;96.29;101114.28;5015593;28;20516;-73
2022/06/07 08:15:50;;;;;;;19.63;14.00;;;;;;;15.45;96.51;101124.50;5015230;28;20040;-74
2022/06/07 08:18:15;;;;;;;20.85;14.43;;;;;;;15.55;95.70;101129.25;5015959;28;20026;-75
2022/06/07 08:20:40;;;;;;;18.63;13.13;;;;;;;15.68;98.62;101126.16;5015244;28;20109;-73
2022/06/07 08:23:07;;;;;;;18.77;14.00;;;;;;;15.79;96.30;101123.59;5015018;28;20060;-73
2022/06/07 08:25:33;;;;;;;19.75;13.68;;;;;;;15.83;95.51;101119.28;5015259;28;20026;-73
2022/06/07 08:28:02;;;;;;;18.52;14.50;;;;;;;15.99;95.82;101128.47;5015339;28;20095;-73
2022/06/07 08:30:27;;;;;;;21.20;17.55;;;;;;;16.09;93.98;101124.00;5015326;28;20572;-72
2022/06/07 08:32:52;;;;;;;23.83;17.05;;;;;;;16.18;92.50;101129.00;5014972;28;20037;-73
2022/06/07 08:38:04;;;;;;;18.65;13.88;;;;;;;16.08;89.05;101122.34;5014153;28;20100;-72
2022/06/07 08:40:33;;;;;;;20.45;13.70;;;;;;;16.09;89.50;101123.16;5015314;28;20034;-72
2022/06/07 08:43:04;;;;;;;20.10;14.75;;;;;;;16.07;90.76;101122.59;5015271;28;20026;-73
2022/06/07 08:45:34;;;;;;;18.95;13.52;;;;;;;16.07;89.32;101120.69;5014952;28;20026;-72
2022/06/07 08:48:03;;;;;;;15.80;13.13;;;;;;;16.10;87.01;101124.81;5015128;28;20029;-72
2022/06/07 08:50:33;;;;;;;17.70;13.38;;;;;;;16.11;88.32;101130.00;5015367;28;20026;-75
2022/06/07 08:53:14;;;;;;;14.05;12.18;;;;;;;16.22;87.49;101124.69;5014991;28;20029;-71
2022/06/07 08:55:46;;;;;;;17.88;13.38;;;;;;;16.29;87.78;101117.13;5014784;28;20036;-71
2022/06/07 08:58:22;;;;;;;16.73;13.25;;;;;;;16.46;88.68;101117.81;5014685;28;20392;-71
2022/06/07 09:00:52;;;;;;;18.20;14.57;;;;;;;16.69;87.21;101125.97;5011872;28;20140;-72
2022/06/07 09:03:43;;;;;;;19.70;15.13;;;;;;;16.74;84.63;101118.66;5014927;28;20061;-72
2022/06/07 09:06:21;;;;;;;18.52;13.23;;;;;;;16.65;80.34;101117.44;5014854;28;20025;-72
2022/06/07 09:08:56;;;;;;;14.90;11.75;;;;;;;16.70;79.58;101114.78;5014522;28;20030;-72
2022/06/07 09:14:18;;;;;;;17.38;12.68;;;;;;;16.87;79.00;101109.19;5014380;28;20528;-73
2022/06/07 09:16:43;;;;;;;17.63;11.25;;;;;;;16.88;79.62;101110.84;5013997;28;20036;-73
2022/06/07 09:19:11;;;;;;;14.75;10.98;;;;;;;16.92;76.95;101119.34;5014273;28;20108;-74
2022/06/07 09:21:40;;;;;;;13.20;11.20;;;;;;;16.92;78.25;101119.34;5013808;28;20093;-74
2022/06/07 09:24:32;;;;;;;16.20;11.52;;;;;;;16.85;78.90;101111.34;5014643;28;20034;-73
2022/06/07 09:27:18;;;;;;;12.35;11.05;;;;;;;16.97;82.36;101111.22;5012454;28;20136;-76
2022/06/07 09:29:57;;;;;;;14.82;11.68;;;;;;;17.07;81.02;101114.00;5013884;28;20045;-76
2022/06/07 09:32:25;;;;;;;14.80;10.20;;;;;;;17.13;76.58;101114.88;5008464;28;20500;-76
2022/06/07 09:34:56;;;;;;;13.32;10.27;;;;;;;17.20;76.27;101114.66;5013788;28;20061;-76
2022/06/07 09:37:37;;;;;;;14.63;9.55;;;;;;;17.18;76.11;101109.41;5014160;28;20033;-75
2022/06/07 09:40:29;;;;;;;;;;;;;;;17.26;78.29;101111.69;5013966;28;20022;-73
2022/06/07 09:43:08;;;;;;;17.58;8.68;;;;;;;17.39;76.34;101104.09;5012451;28;19936;-73
2022/06/07 09:45:47;;;;;;;12.32;8.43;;;;;;;17.52;73.70;101100.88;5013459;28;20026;-73
2022/06/07 09:48:20;;;;;;;13.43;8.25;;;;;;;17.63;74.59;101109.97;5014066;28;20041;-72
2022/06/07 09:50:56;;;;;;;11.60;7.93;;;;;;;17.70;75.22;101108.63;5013475;28;20026;-75
2022/06/07 09:53:21;;;;;;;13.80;6.85;;;;;;;17.64;67.87;101104.22;5013919;28;20034;-73
2022/06/07 09:55:53;;;;;;;15.00;6.80;;;;;;;17.61;71.87;101109.41;5013333;28;20042;-72
2022/06/07 09:58:57;;;;;;;12.13;8.27;;;;;;;17.61;73.27;101107.50;5013194;28;20022;-73
2022/06/07 10:01:37;;;;;;;8.32;5.35;;;;;;;17.60;73.96;101099.56;5031208;28;20026;-74
2022/06/07 10:04:16;;;;;;;16.40;7.10;;;;;;;17.59;72.80;101100.63;5033285;28;20030;-74
2022/06/07 10:06:49;;;;;;;11.30;5.95;;;;;;;17.54;71.33;101099.53;5032839;28;20040;-69
2022/06/07 10:09:23;;;;;;;12.70;5.85;;;;;;;17.58;73.64;101101.75;5031409;28;20083;-73
2022/06/07 10:11:57;;;;;;;11.10;6.68;;;;;;;17.54;72.97;101105.00;5010433;28;20080;-71
2022/06/07 10:14:44;;;;;;;11.48;7.03;;;;;;;17.49;71.31;101096.75;5014326;28;20044;-72
2022/06/07 10:17:27;;;;;;;12.93;7.07;;;;;;;17.59;74.58;101100.63;5013248;28;20033;-70
2022/06/07 10:20:08;;;;;;;13.30;6.22;;;;;;;17.65;73.32;101091.38;5031556;28;20107;-69
2022/06/07 10:23:05;;;;;;;6.65;4.68;;;;;;;17.74;70.75;101092.50;5033227;28;20053;-72
2022/06/07 10:25:50;;;;;;;7.20;4.50;;;;;;;17.75;71.03;101085.13;5033059;28;20084;-71
2022/06/07 10:28:26;;;;;;;14.57;4.78;;;;;;;17.73;68.62;101084.56;5033113;28;20033;-70
2022/06/07 10:31:02;;;;;;;6.43;4.30;;;;;;;17.73;70.75;101088.13;5016994;28;20026;-73
2022/06/07 10:33:42;;;;;;;7.32;4.28;;;;;;;17.70;68.96;101085.94;5013746;28;20049;-70
2022/06/07 10:36:29;;;;;;;8.20;4.30;;;;;;;17.64;67.44;101087.00;5011795;28;20390;-70
2022/06/07 10:39:14;;;;;;;8.70;4.75;;;;;;;17.61;67.98;101090.25;5012958;28;20038;-71
2022/06/07 10:42:05;;;;;;;5.88;4.15;;;;;;;17.53;69.80;101092.41;5013048;28;20092;-68
2022/06/07 10:44:41;;;;;;;7.00;3.70;;;;;;;17.50;70.60;101095.69;5012838;28;20044;-69
2022/06/07 10:47:23;;;;;;;5.32;3.60;;;;;;;17.58;70.46;101082.59;5012864;28;20025;-74
2022/06/07 10:50:04;;;;;;;6.45;3.40;;;;;;;17.73;70.58;101090.88;5012922;28;20037;-73
2022/06/07 10:52:46;;;;;;;13.85;4.30;;;;;;;17.88;67.10;101081.88;5030611;28;20037;-71
2022/06/07 10:55:22;;;;;;;7.63;4.63;;;;;;;17.93;68.29;101078.38;5031862;28;20052;-71
2022/06/07 10:58:12;;;;;;;6.70;4.35;;;;;;;17.98;67.34;101073.75;5032106;28;20088;-73
2022/06/07 11:00:51;;;;;;;11.02;4.53;;;;;;;17.93;70.61;101078.38;5029868;28;20079;-71
2022/06/07 11:03:31;;;;;;;10.15;3.70;;;;;;;17.94;67.78;101075.38;5032451;28;20030;-72
2022/06/07 11:09:19;;;;;;;17.67;4.03;;;;;;;18.19;65.85;101077.38;5012420;28;20052;-73
2022/06/07 11:11:47;;;;;;;5.72;3.03;;;;;;;18.34;64.76;101073.00;5011931;28;20105;-74
2022/06/07 11:14:31;;;;;;;18.27;3.83;;;;;;;18.60;65.32;101068.38;5024398;28;20462;-74
2022/06/07 11:17:06;;;;;;;5.80;2.78;;;;;;;18.76;64.63;101074.66;5012517;28;20104;-75
2022/06/07 11:19:32;;;;;;;5.55;2.45;;;;;;;18.73;60.68;101069.72;5012572;28;20037;-76
2022/06/07 11:22:02;;;;;;;6.68;2.70;;;;;;;18.74;60.82;101082.34;5010801;28;20042;-74
2022/06/07 11:24:35;;;;;;;5.78;2.63;;;;;;;18.73;61.32;101076.03;5013682;28;20048;-77
2022/06/07 11:27:06;;;;;;;5.20;2.15;;;;;;;18.70;60.61;101073.00;5011680;28;20030;-76
2022/06/07 11:29:32;;;;;;;;;;;;;;;18.73;62.45;101077.94;5013115;28;20032;-77
2022/06/07 11:31:59;;;;;;;6.03;2.33;;;;;;;18.73;61.12;101073.28;5027512;28;20000;-76
2022/06/07 11:34:26;;;;;;;6.63;2.70;;;;;;;18.82;59.77;101070.81;5013390;28;20033;-77
2022/06/07 11:37:34;;;;;;;6.30;2.40;;;;;;;18.82;62.11;101076.28;5014954;28;20061;-81
2022/06/07 11:39:59;;;;;;;5.43;2.05;;;;;;;18.84;61.04;101067.78;5030906;28;20022;-75